Terminal Aerodrome Forecast
Issued by NWS

Home | Current Version | Previous Version | Graphics & Text | Print | Product List | Glossary On
Versions: 1 2 3 4 5 6 7 8 9 10 11 12 13 14 15 16 17 18 19 20 21 22 23 24
575
FTUS43 KGRB 240412 AAB
TAFCWA
TAF AMD
KCWA 240412Z 2404/2424 31004KT 3/4SM BR OVC004
      TEMPO 2404/2408 1/4SM FG BKN002
     FM240800 31003KT 2SM BR BKN003
      TEMPO 2410/2414 3/4SM BR BKN002
     FM241400 34003KT 3SM BR OVC004
     FM241700 06004KT P6SM BKN007=

USA.gov is the U.S. government's official web portal to all federal, state and local government web resources and services.